sensor_id;sensor_type;location;lat;lon;timestamp;P1;durP1;ratioP1;P2;durP2;ratioP2
57307;SDS011;43152;50.968;18.214;2023-04-15T00:08:52;21.80;;;6.70;;
57307;SDS011;43152;50.968;18.214;2023-04-15T00:18:35;13.40;;;6.10;;
57307;SDS011;43152;50.968;18.214;2023-04-15T00:28:18;14.30;;;6.50;;
57307;SDS011;43152;50.968;18.214;2023-04-15T00:38:03;13.60;;;7.60;;
57307;SDS011;43152;50.968;18.214;2023-04-15T00:47:46;14.80;;;6.70;;
57307;SDS011;43152;50.968;18.214;2023-04-15T00:57:30;12.20;;;5.60;;
57307;SDS011;43152;50.968;18.214;2023-04-15T01:07:13;17.10;;;7.30;;
57307;SDS011;43152;50.968;18.214;2023-04-15T01:16:56;11.10;;;5.00;;
57307;SDS011;43152;50.968;18.214;2023-04-15T01:26:40;12.00;;;5.90;;
57307;SDS011;43152;50.968;18.214;2023-04-15T01:36:23;6.00;;;2.10;;
57307;SDS011;43152;50.968;18.214;2023-04-15T01:46:06;11.80;;;4.60;;
57307;SDS011;43152;50.968;18.214;2023-04-15T01:55:50;12.10;;;5.10;;
57307;SDS011;43152;50.968;18.214;2023-04-15T02:05:34;14.00;;;5.30;;
57307;SDS011;43152;50.968;18.214;2023-04-15T02:15:18;10.50;;;4.80;;
57307;SDS011;43152;50.968;18.214;2023-04-15T02:25:07;14.80;;;6.70;;
57307;SDS011;43152;50.968;18.214;2023-04-15T02:34:51;36.50;;;17.80;;
57307;SDS011;43152;50.968;18.214;2023-04-15T02:44:35;10.20;;;6.20;;
57307;SDS011;43152;50.968;18.214;2023-04-15T02:54:22;13.40;;;5.00;;
57307;SDS011;43152;50.968;18.214;2023-04-15T03:04:05;17.40;;;6.90;;
57307;SDS011;43152;50.968;18.214;2023-04-15T03:13:51;16.50;;;8.40;;
57307;SDS011;43152;50.968;18.214;2023-04-15T03:23:33;15.40;;;7.80;;
57307;SDS011;43152;50.968;18.214;2023-04-15T03:33:20;13.60;;;5.20;;
57307;SDS011;43152;50.968;18.214;2023-04-15T03:43:03;9.50;;;2.80;;
57307;SDS011;43152;50.968;18.214;2023-04-15T03:52:45;11.00;;;3.40;;
57307;SDS011;43152;50.968;18.214;2023-04-15T04:02:30;10.60;;;3.70;;
57307;SDS011;43152;50.968;18.214;2023-04-15T04:12:13;9.20;;;3.60;;
57307;SDS011;43152;50.968;18.214;2023-04-15T04:21:55;10.60;;;4.70;;
57307;SDS011;43152;50.968;18.214;2023-04-15T04:38:54;12.40;;;5.40;;
57307;SDS011;43152;50.968;18.214;2023-04-15T04:48:36;11.00;;;4.50;;
57307;SDS011;43152;50.968;18.214;2023-04-15T04:58:19;8.20;;;3.20;;
57307;SDS011;43152;50.968;18.214;2023-04-15T05:08:05;20.20;;;7.50;;
57307;SDS011;43152;50.968;18.214;2023-04-15T05:17:48;7.00;;;3.10;;
57307;SDS011;43152;50.968;18.214;2023-04-15T05:27:31;8.80;;;2.80;;
57307;SDS011;43152;50.968;18.214;2023-04-15T05:37:14;7.40;;;2.70;;
57307;SDS011;43152;50.968;18.214;2023-04-15T05:46:56;4.40;;;1.90;;
57307;SDS011;43152;50.968;18.214;2023-04-15T05:56:41;13.60;;;3.60;;
57307;SDS011;43152;50.968;18.214;2023-04-15T06:06:24;19.90;;;12.10;;
57307;SDS011;43152;50.968;18.214;2023-04-15T06:16:07;4.80;;;2.00;;
57307;SDS011;43152;50.968;18.214;2023-04-15T06:25:49;14.20;;;5.80;;
57307;SDS011;43152;50.968;18.214;2023-04-15T06:35:32;8.60;;;2.60;;
57307;SDS011;43152;50.968;18.214;2023-04-15T06:45:14;8.50;;;4.00;;
57307;SDS011;43152;50.968;18.214;2023-04-15T06:54:57;10.50;;;5.20;;
57307;SDS011;43152;50.968;18.214;2023-04-15T07:04:42;4.50;;;1.70;;
57307;SDS011;43152;50.968;18.214;2023-04-15T07:14:24;4.50;;;1.30;;
57307;SDS011;43152;50.968;18.214;2023-04-15T07:24:07;54.70;;;20.20;;
57307;SDS011;43152;50.968;18.214;2023-04-15T07:33:51;80.30;;;36.10;;
57307;SDS011;43152;50.968;18.214;2023-04-15T07:43:34;11.10;;;4.60;;
57307;SDS011;43152;50.968;18.214;2023-04-15T07:53:16;19.80;;;7.30;;
57307;SDS011;43152;50.968;18.214;2023-04-15T08:02:59;15.30;;;5.90;;
57307;SDS011;43152;50.968;18.214;2023-04-15T08:12:41;24.40;;;10.10;;
57307;SDS011;43152;50.968;18.214;2023-04-15T08:22:25;13.60;;;5.20;;
57307;SDS011;43152;50.968;18.214;2023-04-15T08:32:09;0.50;;;0.40;;
57307;SDS011;43152;50.968;18.214;2023-04-15T08:41:56;5.10;;;1.30;;
57307;SDS011;43152;50.968;18.214;2023-04-15T08:51:51;0.20;;;0.10;;
57307;SDS011;43152;50.968;18.214;2023-04-15T09:01:34;1.60;;;0.20;;
57307;SDS011;43152;50.968;18.214;2023-04-15T09:11:20;11.40;;;5.30;;
57307;SDS011;43152;50.968;18.214;2023-04-15T09:21:04;10.10;;;2.50;;
57307;SDS011;43152;50.968;18.214;2023-04-15T09:30:50;13.40;;;4.20;;
57307;SDS011;43152;50.968;18.214;2023-04-15T09:40:41;1.30;;;0.20;;
57307;SDS011;43152;50.968;18.214;2023-04-15T09:50:28;3.00;;;0.60;;
57307;SDS011;43152;50.968;18.214;2023-04-15T10:00:11;4.10;;;0.50;;
57307;SDS011;43152;50.968;18.214;2023-04-15T10:10:00;1.20;;;0.20;;
57307;SDS011;43152;50.968;18.214;2023-04-15T10:19:49;0.50;;;0.20;;
57307;SDS011;43152;50.968;18.214;2023-04-15T10:29:42;0.50;;;0.10;;
57307;SDS011;43152;50.968;18.214;2023-04-15T10:39:38;1.40;;;0.40;;
57307;SDS011;43152;50.968;18.214;2023-04-15T10:49:35;1.10;;;0.30;;
57307;SDS011;43152;50.968;18.214;2023-04-15T10:59:29;9.30;;;0.50;;
57307;SDS011;43152;50.968;18.214;2023-04-15T11:09:39;2.10;;;0.60;;
57307;SDS011;43152;50.968;18.214;2023-04-15T11:19:26;0.80;;;0.30;;
57307;SDS011;43152;50.968;18.214;2023-04-15T11:29:21;0.50;;;0.20;;
57307;SDS011;43152;50.968;18.214;2023-04-15T11:39:10;0.50;;;0.20;;
57307;SDS011;43152;50.968;18.214;2023-04-15T11:48:56;0.60;;;0.40;;
57307;SDS011;43152;50.968;18.214;2023-04-15T11:58:42;2.60;;;0.30;;
57307;SDS011;43152;50.968;18.214;2023-04-15T12:19:40;0.60;;;0.20;;
57307;SDS011;43152;50.968;18.214;2023-04-15T12:29:39;3.90;;;0.60;;
57307;SDS011;43152;50.968;18.214;2023-04-15T12:39:30;1.50;;;0.30;;
57307;SDS011;43152;50.968;18.214;2023-04-15T12:49:16;3.80;;;0.40;;
57307;SDS011;43152;50.968;18.214;2023-04-15T12:59:02;1.00;;;0.40;;
57307;SDS011;43152;50.968;18.214;2023-04-15T13:08:45;2.00;;;0.50;;
57307;SDS011;43152;50.968;18.214;2023-04-15T13:18:28;1.50;;;0.30;;
57307;SDS011;43152;50.968;18.214;2023-04-15T13:28:11;0.60;;;0.20;;
57307;SDS011;43152;50.968;18.214;2023-04-15T13:37:55;14.70;;;2.90;;
57307;SDS011;43152;50.968;18.214;2023-04-15T13:47:37;5.70;;;2.30;;
57307;SDS011;43152;50.968;18.214;2023-04-15T13:57:20;7.70;;;2.80;;
57307;SDS011;43152;50.968;18.214;2023-04-15T14:07:02;7.70;;;2.30;;
57307;SDS011;43152;50.968;18.214;2023-04-15T14:16:44;5.10;;;1.40;;
57307;SDS011;43152;50.968;18.214;2023-04-15T14:26:26;1.70;;;0.60;;
57307;SDS011;43152;50.968;18.214;2023-04-15T14:36:09;4.20;;;1.70;;
57307;SDS011;43152;50.968;18.214;2023-04-15T14:45:56;3.40;;;1.20;;
57307;SDS011;43152;50.968;18.214;2023-04-15T14:55:38;2.90;;;1.40;;
57307;SDS011;43152;50.968;18.214;2023-04-15T15:05:21;4.00;;;0.90;;
57307;SDS011;43152;50.968;18.214;2023-04-15T15:15:04;6.40;;;2.30;;
57307;SDS011;43152;50.968;18.214;2023-04-15T15:24:47;8.00;;;1.60;;
57307;SDS011;43152;50.968;18.214;2023-04-15T15:34:29;9.10;;;2.40;;
57307;SDS011;43152;50.968;18.214;2023-04-15T15:44:13;12.30;;;2.80;;
57307;SDS011;43152;50.968;18.214;2023-04-15T15:53:56;6.80;;;2.30;;
57307;SDS011;43152;50.968;18.214;2023-04-15T16:03:38;10.70;;;3.70;;
57307;SDS011;43152;50.968;18.214;2023-04-15T16:13:20;8.80;;;3.40;;
57307;SDS011;43152;50.968;18.214;2023-04-15T16:23:07;11.30;;;3.60;;
57307;SDS011;43152;50.968;18.214;2023-04-15T16:32:56;11.20;;;4.20;;
57307;SDS011;43152;50.968;18.214;2023-04-15T16:42:39;11.20;;;3.70;;
57307;SDS011;43152;50.968;18.214;2023-04-15T16:52:24;7.20;;;3.50;;
57307;SDS011;43152;50.968;18.214;2023-04-15T17:02:09;7.90;;;2.20;;
57307;SDS011;43152;50.968;18.214;2023-04-15T17:11:52;4.90;;;1.60;;
57307;SDS011;43152;50.968;18.214;2023-04-15T17:21:36;7.10;;;1.80;;
57307;SDS011;43152;50.968;18.214;2023-04-15T17:31:18;7.10;;;1.60;;
57307;SDS011;43152;50.968;18.214;2023-04-15T17:41:01;8.20;;;2.30;;
57307;SDS011;43152;50.968;18.214;2023-04-15T17:50:44;21.70;;;4.70;;
57307;SDS011;43152;50.968;18.214;2023-04-15T18:00:26;21.60;;;7.00;;
57307;SDS011;43152;50.968;18.214;2023-04-15T18:10:10;17.30;;;8.70;;
57307;SDS011;43152;50.968;18.214;2023-04-15T18:19:52;32.70;;;15.40;;
57307;SDS011;43152;50.968;18.214;2023-04-15T18:29:34;21.50;;;9.70;;
57307;SDS011;43152;50.968;18.214;2023-04-15T18:39:20;18.90;;;7.80;;
57307;SDS011;43152;50.968;18.214;2023-04-15T18:49:02;15.70;;;6.60;;
57307;SDS011;43152;50.968;18.214;2023-04-15T18:58:45;16.90;;;5.80;;
57307;SDS011;43152;50.968;18.214;2023-04-15T19:08:28;11.60;;;5.00;;
57307;SDS011;43152;50.968;18.214;2023-04-15T19:18:12;17.30;;;6.70;;
57307;SDS011;43152;50.968;18.214;2023-04-15T19:27:55;19.80;;;8.20;;
57307;SDS011;43152;50.968;18.214;2023-04-15T19:37:37;17.10;;;7.00;;
57307;SDS011;43152;50.968;18.214;2023-04-15T19:47:20;20.10;;;9.50;;
57307;SDS011;43152;50.968;18.214;2023-04-15T19:57:04;29.10;;;8.60;;
57307;SDS011;43152;50.968;18.214;2023-04-15T20:06:47;22.60;;;9.40;;
57307;SDS011;43152;50.968;18.214;2023-04-15T20:16:30;20.90;;;7.80;;
57307;SDS011;43152;50.968;18.214;2023-04-15T20:26:15;34.30;;;12.70;;
57307;SDS011;43152;50.968;18.214;2023-04-15T20:35:58;24.60;;;10.40;;
57307;SDS011;43152;50.968;18.214;2023-04-15T20:45:41;34.60;;;15.50;;
57307;SDS011;43152;50.968;18.214;2023-04-15T20:55:23;17.80;;;7.90;;
57307;SDS011;43152;50.968;18.214;2023-04-15T21:05:07;37.30;;;14.10;;
57307;SDS011;43152;50.968;18.214;2023-04-15T21:14:49;22.50;;;10.60;;
57307;SDS011;43152;50.968;18.214;2023-04-15T21:24:32;22.10;;;9.20;;
57307;SDS011;43152;50.968;18.214;2023-04-15T21:34:14;16.30;;;7.90;;
57307;SDS011;43152;50.968;18.214;2023-04-15T21:43:56;18.60;;;7.20;;
57307;SDS011;43152;50.968;18.214;2023-04-15T21:53:39;20.90;;;7.20;;
57307;SDS011;43152;50.968;18.214;2023-04-15T22:21:59;39.80;;;17.40;;
57307;SDS011;43152;50.968;18.214;2023-04-15T22:31:41;35.90;;;15.00;;
57307;SDS011;43152;50.968;18.214;2023-04-15T22:41:24;31.70;;;15.80;;
57307;SDS011;43152;50.968;18.214;2023-04-15T22:51:07;33.90;;;12.30;;
57307;SDS011;43152;50.968;18.214;2023-04-15T23:00:49;38.70;;;15.40;;
57307;SDS011;43152;50.968;18.214;2023-04-15T23:10:31;36.80;;;12.60;;
57307;SDS011;43152;50.968;18.214;2023-04-15T23:20:14;41.80;;;17.00;;
57307;SDS011;43152;50.968;18.214;2023-04-15T23:30:00;31.70;;;13.40;;
57307;SDS011;43152;50.968;18.214;2023-04-15T23:39:43;29.70;;;13.80;;
57307;SDS011;43152;50.968;18.214;2023-04-15T23:49:28;35.30;;;14.80;;
57307;SDS011;43152;50.968;18.214;2023-04-15T23:59:10;20.00;;;9.50;;
